Time;durP1;ratioP1;P1;durP2;ratioP2;P2;SDS_P1;SDS_P2;PMS_P1;PMS_P2;Temp;Humidity;BMP_temperature;BMP_pressure;BME280_temperature;BME280_humidity;BME280_pressure;Samples;Min_cycle;Max_cycle;Signal;HPM_P1;HPM_P2
2022/12/18 00:01:31;;;;;;;;;;;-3270.70;79.20;;;;;;5025034;28;19933;-77
2022/12/18 00:03:56;;;;;;;;;;;-3270.70;78.80;;;;;;5026174;28;19968;-77
2022/12/18 00:06:25;;;;;;;;;;;-3270.60;78.80;;;;;;5023500;28;19945;-77
2022/12/18 00:08:51;;;;;;;;;;;-3270.50;79.10;;;;;;5027635;28;19920;-76
2022/12/18 00:11:17;;;;;;;;;;;-3270.50;79.40;;;;;;5021642;28;20563;-77
2022/12/18 00:13:43;;;;;;;;;;;-3270.50;79.10;;;;;;5021978;28;20436;-77
2022/12/18 00:16:11;;;;;;;;;;;-3270.60;78.90;;;;;;5022070;28;20028;-77
2022/12/18 00:18:37;;;;;;;;;;;-3270.60;78.70;;;;;;5021968;28;19925;-76
2022/12/18 00:21:04;;;;;;;;;;;-3270.60;78.10;;;;;;5020003;28;19975;-76
2022/12/18 00:23:30;;;;;;;;;;;-3270.50;78.20;;;;;;5021988;28;19928;-77
2022/12/18 00:25:59;;;;;;;;;;;-3270.50;78.40;;;;;;5021243;28;19940;-76
2022/12/18 00:28:24;;;;;;;;;;;-3270.50;78.70;;;;;;5016874;28;20044;-76
2022/12/18 00:30:51;;;;;;;;;;;-3270.50;78.80;;;;;;5035195;28;20359;-76
2022/12/18 00:33:17;;;;;;;;;;;-3270.60;78.90;;;;;;5019675;28;19917;-76
2022/12/18 00:35:42;;;;;;;;;;;-3270.60;79.20;;;;;;5019252;28;19917;-76
2022/12/18 00:38:08;;;;;;;;;;;-3270.60;79.00;;;;;;5017294;28;19944;-77
2022/12/18 00:40:33;;;;;;;;;;;-3270.50;78.60;;;;;;5022682;28;19944;-77
2022/12/18 00:42:58;;;;;;;;;;;-3270.50;78.20;;;;;;5019527;28;19922;-76
2022/12/18 00:45:25;;;;;;;;;;;-3270.40;78.10;;;;;;5021692;28;19921;-77
2022/12/18 00:47:50;;;;;;;;;;;-3270.30;78.50;;;;;;5022741;28;20835;-77
2022/12/18 00:50:16;;;;;;;;;;;-3270.20;78.00;;;;;;5037656;28;19948;-77
2022/12/18 00:52:42;;;;;;;;;;;-3270.10;77.70;;;;;;5020124;28;21727;-77
2022/12/18 00:55:08;;;;;;;;;;;-3270.10;77.90;;;;;;5016656;28;20339;-77
2022/12/18 00:57:33;;;;;;;;;;;-3270.00;78.10;;;;;;5037752;28;19932;-77
2022/12/18 00:59:59;;;;;;;;;;;-3269.80;77.90;;;;;;5023236;28;20383;-77
2022/12/18 01:02:24;;;;;;;;;;;-3269.80;78.30;;;;;;5019187;28;19925;-77
2022/12/18 01:04:50;;;;;;;;;;;-3269.60;78.40;;;;;;5019276;28;20304;-76
2022/12/18 01:07:15;;;;;;;;;;;-3269.70;78.40;;;;;;5024228;28;19917;-77
2022/12/18 01:09:41;;;;;;;;;;;-3269.70;78.70;;;;;;5024652;28;19921;-77
2022/12/18 01:12:06;;;;;;;;;;;-3269.80;78.90;;;;;;5028225;28;19940;-77
2022/12/18 01:14:32;;;;;;;;;;;-3270.00;78.70;;;;;;5026280;28;19913;-77
2022/12/18 01:16:57;;;;;;;;;;;-3270.00;78.30;;;;;;5049652;22;19940;-88
2022/12/18 01:19:23;;;;;;;;;;;-3269.90;78.60;;;;;;5049374;28;20023;-88
2022/12/18 01:21:49;;;;;;;;;;;-3270.10;78.60;;;;;;5027348;28;19928;-88
2022/12/18 01:24:14;;;;;;;;;;;-3270.10;78.90;;;;;;5028432;28;19920;-88
2022/12/18 01:26:40;;;;;;;;;;;-3270.20;79.40;;;;;;5055941;28;19921;-87
2022/12/18 01:29:05;;;;;;;;;;;-3270.20;79.20;;;;;;5027250;28;19917;-88
2022/12/18 01:31:32;;;;;;;;;;;-3270.30;79.10;;;;;;5027409;28;19917;-88
2022/12/18 01:34:00;;;;;;;;;;;-3270.30;78.30;;;;;;5026579;28;19960;-87
2022/12/18 01:36:27;;;;;;;;;;;-3270.20;78.30;;;;;;5026502;28;19917;-87
2022/12/18 01:38:53;;;;;;;;;;;-3270.10;78.20;;;;;;5030228;28;20336;-87
2022/12/18 01:41:21;;;;;;;;;;;-3270.20;78.00;;;;;;5029086;28;19921;-87
2022/12/18 01:43:57;;;;;;;;;;;-3270.00;78.00;;;;;;5027791;28;19912;-87
2022/12/18 01:46:23;;;;;;;;;;;-3270.10;77.90;;;;;;5043680;28;20008;-87
2022/12/18 01:48:49;;;;;;;;;;;-3270.00;78.10;;;;;;5030777;28;19917;-85
2022/12/18 01:51:15;;;;;;;;;;;-3270.00;78.30;;;;;;5026135;28;19947;-85
2022/12/18 01:53:41;;;;;;;;;;;-3270.10;78.30;;;;;;5054746;28;19921;-85
2022/12/18 01:56:07;;;;;;;;;;;-3270.00;78.10;;;;;;5031310;28;19920;-85
2022/12/18 01:58:39;;;;;;;;;;;-3270.00;78.10;;;;;;5043178;28;19929;-86
2022/12/18 02:01:04;;;;;;;;;;;-3269.90;77.70;;;;;;5045847;28;19935;-87
2022/12/18 02:03:30;;;;;;;;;;;-3269.90;78.10;;;;;;5033088;28;20378;-85
2022/12/18 02:05:58;;;;;;;;;;;-3269.80;78.20;;;;;;5058473;28;20007;-86
2022/12/18 02:08:32;;;;;;;;;;;-3269.80;78.40;;;;;;5051729;28;20266;-86
2022/12/18 02:11:01;;;;;;;;;;;-3269.90;78.40;;;;;;5027191;28;19913;-86
2022/12/18 02:13:40;;;;;;;;;;;-3270.00;78.20;;;;;;5021726;28;19920;-86
2022/12/18 02:16:13;;;;;;;;;;;-3270.00;77.80;;;;;;5029425;28;19918;-86
2022/12/18 02:18:41;;;;;;;;;;;-3269.90;77.60;;;;;;5047084;28;19927;-86
2022/12/18 02:21:25;;;;;;;;;;;-3269.80;77.70;;;;;;5027057;28;19912;-86
2022/12/18 02:23:57;;;;;;;;;;;-3269.70;77.80;;;;;;5057786;28;19955;-85
2022/12/18 02:26:22;;;;;;;;;;;-3269.70;77.50;;;;;;5058207;28;20071;-86
2022/12/18 02:29:03;;;;;;;;;;;-3269.70;77.60;;;;;;5042415;28;19984;-85
2022/12/18 02:31:31;;;;;;;;;;;-3269.70;77.80;;;;;;5045869;28;20473;-85
2022/12/18 02:33:58;;;;;;;;;;;-3269.70;77.90;;;;;;5042704;28;20307;-86
2022/12/18 02:36:25;;;;;;;;;;;-3269.80;77.60;;;;;;5028847;28;20394;-85
2022/12/18 02:38:52;;;;;;;;;;;-3269.60;77.30;;;;;;5043878;28;20328;-85
2022/12/18 02:41:17;;;;;;;;;;;-3269.70;78.20;;;;;;5042566;28;19912;-86
2022/12/18 02:43:53;;;;;;;;;;;-3269.80;78.10;;;;;;5027806;28;20405;-86
2022/12/18 02:46:25;;;;;;;;;;;-3269.80;77.60;;;;;;5045692;28;19917;-86
2022/12/18 02:48:52;;;;;;;;;;;-3270.00;77.50;;;;;;5035298;28;19917;-86
2022/12/18 02:51:22;;;;;;;;;;;-3270.00;77.40;;;;;;5028953;28;19921;-86
2022/12/18 02:53:51;;;;;;;;;;;-3270.00;77.60;;;;;;5042753;28;19913;-85
2022/12/18 02:56:22;;;;;;;;;;;-3270.10;78.00;;;;;;5051597;28;19927;-85
2022/12/18 02:58:47;;;;;;;;;;;-3270.00;77.70;;;;;;5047067;28;19920;-85
2022/12/18 03:01:22;;;;;;;;;;;-3270.00;78.00;;;;;;5028191;28;19913;-86
2022/12/18 03:03:52;;;;;;;;;;;-3270.00;78.20;;;;;;5058978;28;19947;-85
2022/12/18 03:06:23;;;;;;;;;;;-3269.90;78.00;;;;;;5030343;28;19943;-87
2022/12/18 03:08:51;;;;;;;;;;;-3270.00;78.00;;;;;;5051660;28;19944;-87
2022/12/18 03:12:22;;;;;;;;;;;-3269.90;78.10;;;;;;5049937;28;19920;-86
2022/12/18 03:14:03;;;;;;;;;;;-3269.90;78.20;;;;;;5067238;28;19995;-86
2022/12/18 03:16:30;;;;;;;;;;;-3269.90;78.00;;;;;;5049207;28;20273;-87
2022/12/18 03:19:04;;;;;;;;;;;-3269.80;77.90;;;;;;5040156;28;20370;-87
2022/12/18 03:21:44;;;;;;;;;;;-3269.70;77.80;;;;;;5025403;28;19924;-87
2022/12/18 03:24:10;;;;;;;;;;;-3269.80;77.90;;;;;;5037300;28;19948;-86
2022/12/18 03:26:39;;;;;;;;;;;-3269.80;77.60;;;;;;5048732;28;19917;-87
2022/12/18 03:29:25;;;;;;;;;;;-3269.90;77.40;;;;;;5046919;28;19904;-87
2022/12/18 03:31:56;;;;;;;;;;;-3269.70;77.20;;;;;;5051513;28;19924;-86
2022/12/18 03:34:24;;;;;;;;;;;-3269.70;77.70;;;;;;5063124;28;19913;-86
2022/12/18 03:36:49;;;;;;;;;;;-3269.70;77.40;;;;;;5060833;28;19948;-86
2022/12/18 03:39:15;;;;;;;;;;;-3269.70;77.40;;;;;;5045168;28;19929;-86
2022/12/18 03:41:46;;;;;;;;;;;-3269.70;77.60;;;;;;5062964;28;19917;-86
2022/12/18 03:44:20;;;;;;;;;;;-3269.70;78.00;;;;;;5044476;28;20017;-87
2022/12/18 03:47:05;;;;;;;;;;;-3269.70;78.00;;;;;;5025607;28;19996;-86
2022/12/18 03:49:36;;;;;;;;;;;-3269.50;78.20;;;;;;5041650;28;19936;-86
2022/12/18 03:52:04;;;;;;;;;;;-3269.60;78.70;;;;;;5058068;28;19932;-86
2022/12/18 03:54:30;;;;;;;;;;;-3269.60;78.20;;;;;;5026846;28;19917;-87
2022/12/18 03:57:01;;;;;;;;;;;-3269.70;78.30;;;;;;5057245;28;20546;-86
2022/12/18 03:59:27;;;;;;;;;;;-3269.70;78.00;;;;;;5039650;28;20027;-86
2022/12/18 04:01:53;;;;;;;;;;;-3269.70;77.80;;;;;;5024434;28;19917;-86
2022/12/18 04:04:19;;;;;;;;;;;-3269.70;77.70;;;;;;5027938;28;20416;-86
2022/12/18 04:06:46;;;;;;;;;;;-3269.80;78.00;;;;;;5023801;28;20466;-86
2022/12/18 04:09:12;;;;;;;;;;;-3269.70;77.90;;;;;;5022414;28;19919;-85
2022/12/18 04:11:37;;;;;;;;;;;-3269.70;78.00;;;;;;5024946;28;20047;-86
2022/12/18 04:14:02;;;;;;;;;;;-3269.80;78.00;;;;;;5028816;28;20269;-85
2022/12/18 04:16:28;;;;;;;;;;;-3269.70;77.90;;;;;;5047211;28;20008;-83
2022/12/18 04:18:54;;;;;;;;;;;-3269.80;78.40;;;;;;5024432;28;19921;-85
2022/12/18 04:21:20;;;;;;;;;;;-3269.80;78.10;;;;;;5025762;28;19912;-85
2022/12/18 04:23:45;;;;;;;;;;;-3269.80;77.80;;;;;;5027150;28;19979;-85
2022/12/18 04:26:10;;;;;;;;;;;-3269.80;77.60;;;;;;5023102;28;19924;-85
2022/12/18 04:28:36;;;;;;;;;;;-3269.70;78.00;;;;;;5024260;28;19916;-85
2022/12/18 04:31:02;;;;;;;;;;;-3269.60;77.70;;;;;;5024601;28;19936;-85
2022/12/18 04:33:27;;;;;;;;;;;-3269.40;77.20;;;;;;5052395;28;20339;-85
2022/12/18 04:35:53;;;;;;;;;;;-3269.40;77.60;;;;;;5039403;28;19903;-85
2022/12/18 04:38:18;;;;;;;;;;;-3269.40;77.30;;;;;;5043377;28;19932;-85
2022/12/18 04:40:44;;;;;;;;;;;-3269.40;77.50;;;;;;5031914;28;20322;-85
2022/12/18 04:43:09;;;;;;;;;;;-3269.50;77.60;;;;;;5034985;28;20016;-85
2022/12/18 04:45:35;;;;;;;;;;;-3269.50;77.70;;;;;;5060268;28;20030;-85
2022/12/18 04:48:00;;;;;;;;;;;-3269.60;77.90;;;;;;5064171;28;19912;-85
2022/12/18 04:50:26;;;;;;;;;;;-3269.70;77.60;;;;;;5032556;28;20298;-85
2022/12/18 04:52:51;;;;;;;;;;;-3269.70;77.60;;;;;;5028129;28;19921;-85
2022/12/18 04:55:17;;;;;;;;;;;-3269.70;77.80;;;;;;5043687;28;19917;-85
2022/12/18 04:57:42;;;;;;;;;;;-3269.80;77.80;;;;;;5028468;28;19928;-86
2022/12/18 05:00:08;;;;;;;;;;;-3269.70;77.80;;;;;;5050763;28;20409;-86
2022/12/18 05:02:34;;;;;;;;;;;-3269.80;78.00;;;;;;5058345;28;19921;-84
2022/12/18 05:04:59;;;;;;;;;;;-3269.80;78.00;;;;;;5030833;28;19923;-85
2022/12/18 05:07:25;;;;;;;;;;;-3269.70;78.00;;;;;;5059348;28;19967;-85
2022/12/18 05:09:50;;;;;;;;;;;-3269.70;77.80;;;;;;5029930;28;19921;-85
2022/12/18 05:12:15;;;;;;;;;;;-3269.70;77.40;;;;;;5026337;28;19925;-85
2022/12/18 05:14:41;;;;;;;;;;;-3269.60;77.50;;;;;;5026231;28;19913;-86
2022/12/18 05:17:06;;;;;;;;;;;-3269.50;77.70;;;;;;5029419;28;19924;-85
2022/12/18 05:19:32;;;;;;;;;;;-3269.70;77.90;;;;;;5029819;28;19925;-86
2022/12/18 05:21:57;;;;;;;;;;;-3269.60;77.70;;;;;;5026672;28;19917;-84
2022/12/18 05:24:23;;;;;;;;;;;-3269.70;77.90;;;;;;5025818;28;19927;-85
2022/12/18 05:26:48;;;;;;;;;;;-3269.70;77.50;;;;;;5044202;28;19917;-85
2022/12/18 05:29:14;;;;;;;;;;;-3269.70;77.50;;;;;;5027954;28;19917;-85
2022/12/18 05:31:39;;;;;;;;;;;-3269.80;77.60;;;;;;5030170;28;19917;-85
2022/12/18 05:34:07;;;;;;;;;;;-3269.90;77.90;;;;;;5030015;28;19958;-86
2022/12/18 05:36:33;;;;;;;;;;;-3269.90;77.70;;;;;;5027879;28;19927;-85
2022/12/18 05:39:00;;;;;;;;;;;-3269.80;78.40;;;;;;5045790;28;20015;-85
2022/12/18 05:41:25;;;;;;;;;;;-3269.80;79.00;;;;;;5028946;28;19921;-85
2022/12/18 05:43:51;;;;;;;;;;;-3269.90;78.80;;;;;;5031132;28;19920;-85
2022/12/18 05:46:17;;;;;;;;;;;-3270.00;78.80;;;;;;5029001;28;19917;-85
2022/12/18 05:48:43;;;;;;;;;;;-3270.10;79.00;;;;;;5031741;28;19959;-85
2022/12/18 05:51:10;;;;;;;;;;;-3270.20;78.90;;;;;;5053690;28;19980;-86
2022/12/18 05:53:39;;;;;;;;;;;-3270.30;78.80;;;;;;5036909;28;20044;-85
2022/12/18 05:56:06;;;;;;;;;;;-3270.20;78.70;;;;;;5031488;28;19917;-85
2022/12/18 05:58:32;;;;;;;;;;;-3270.20;79.00;;;;;;5069297;28;20394;-85
2022/12/18 06:00:58;;;;;;;;;;;-3270.40;78.90;;;;;;5031605;28;20413;-85
2022/12/18 06:03:23;;;;;;;;;;;-3270.50;79.00;;;;;;5031603;28;19959;-85
2022/12/18 06:05:49;;;;;;;;;;;-3270.50;78.90;;;;;;5048807;28;19952;-85
2022/12/18 06:08:15;;;;;;;;;;;-3270.50;78.80;;;;;;5032702;28;19917;-85
2022/12/18 06:10:40;;;;;;;;;;;-3270.50;79.00;;;;;;5031521;28;19956;-85
2022/12/18 06:13:06;;;;;;;;;;;-3270.60;79.10;;;;;;5030297;28;20598;-86
2022/12/18 06:15:32;;;;;;;;;;;-3270.60;78.90;;;;;;5036547;28;19983;-85
2022/12/18 06:17:57;;;;;;;;;;;-3270.50;78.50;;;;;;5051873;28;19919;-85
2022/12/18 06:20:23;;;;;;;;;;;-3270.50;78.70;;;;;;5039279;28;19963;-84
2022/12/18 06:22:48;;;;;;;;;;;-3270.50;78.80;;;;;;5029702;28;20009;-84
2022/12/18 06:25:14;;;;;;;;;;;-3270.50;78.40;;;;;;5049443;28;19992;-84
2022/12/18 06:27:39;;;;;;;;;;;-3270.60;78.80;;;;;;5033277;28;19917;-84
2022/12/18 06:30:05;;;;;;;;;;;-3270.50;78.40;;;;;;5051655;28;20404;-86
2022/12/18 06:32:31;;;;;;;;;;;-3270.50;78.50;;;;;;5063861;28;20019;-86
2022/12/18 06:34:56;;;;;;;;;;;-3270.50;78.60;;;;;;5062946;28;19923;-87
2022/12/18 06:37:25;;;;;;;;;;;-3270.60;78.40;;;;;;5032725;28;19956;-84
2022/12/18 06:39:56;;;;;;;;;;;-3270.50;78.90;;;;;;5053808;28;20314;-84
2022/12/18 06:42:21;;;;;;;;;;;-3270.50;78.90;;;;;;5044483;28;19920;-86
2022/12/18 06:44:47;;;;;;;;;;;-3270.50;78.70;;;;;;5029589;28;19919;-83
2022/12/18 06:47:12;;;;;;;;;;;-3270.40;78.80;;;;;;5048803;28;20036;-83
2022/12/18 06:49:38;;;;;;;;;;;-3270.30;78.90;;;;;;5056335;28;19913;-84
2022/12/18 06:52:03;;;;;;;;;;;-3270.20;78.80;;;;;;5055632;28;20003;-83
2022/12/18 06:54:29;;;;;;;;;;;-3270.30;78.60;;;;;;5029556;28;19920;-83
2022/12/18 06:56:54;;;;;;;;;;;-3270.20;78.70;;;;;;5049175;28;19921;-84
2022/12/18 06:59:20;;;;;;;;;;;-3270.20;78.70;;;;;;5049111;28;19921;-83
2022/12/18 07:01:45;;;;;;;;;;;-3270.30;78.40;;;;;;5051811;28;19944;-83
2022/12/18 07:04:11;;;;;;;;;;;-3270.30;78.30;;;;;;5063369;28;20497;-83
2022/12/18 07:06:36;;;;;;;;;;;-3270.20;78.40;;;;;;5026254;28;19928;-85
2022/12/18 07:09:04;;;;;;;;;;;-3270.10;78.30;;;;;;5029719;28;19921;-84
2022/12/18 07:11:31;;;;;;;;;;;-3270.20;78.50;;;;;;5030011;28;19920;-84
2022/12/18 07:13:57;;;;;;;;;;;-3270.20;78.70;;;;;;5058509;28;19913;-84
2022/12/18 07:16:28;;;;;;;;;;;-3270.20;78.40;;;;;;5039506;22;20539;-89
2022/12/18 07:18:54;;;;;;;;;;;-3270.20;78.40;;;;;;5006961;28;20008;-90
2022/12/18 07:21:22;;;;;;;;;;;-3270.30;78.50;;;;;;5008106;28;19914;-89
2022/12/18 07:23:51;;;;;;;;;;;-3270.20;78.60;;;;;;5019544;28;19914;-91
2022/12/18 07:26:19;;;;;;;;;;;-3270.30;79.00;;;;;;5016408;28;19941;-93
2022/12/18 07:28:52;;;;;;;;;;;-3270.40;78.70;;;;;;5020096;28;19918;-91
2022/12/18 07:31:21;;;;;;;;;;;-3270.30;78.20;;;;;;4993806;28;19914;-90
2022/12/18 07:33:54;;;;;;;;;;;-3270.20;78.70;;;;;;4992117;28;19960;-91
2022/12/18 07:36:20;;;;;;;;;;;-3270.20;79.10;;;;;;5010701;28;19917;-86
2022/12/18 07:38:52;;;;;;;;;;;-3270.20;79.00;;;;;;4998582;28;19956;-86
2022/12/18 07:41:18;;;;;;;;;;;-3270.30;79.30;;;;;;5007661;28;20016;-86
2022/12/18 07:43:44;;;;;;;;;;;-3270.40;79.40;;;;;;5005621;28;20629;-87
2022/12/18 07:46:13;;;;;;;;;;;-3270.40;79.40;;;;;;4996927;28;19922;-87
2022/12/18 07:48:50;;;;;;;;;;;-3270.50;79.60;;;;;;5011532;28;19913;-87
2022/12/18 07:51:15;;;;;;;;;;;-3270.50;79.70;;;;;;5005270;28;19964;-86
2022/12/18 07:53:41;;;;;;;;;;;-3270.70;79.20;;;;;;5014728;28;19926;-86
2022/12/18 07:56:10;;;;;;;;;;;-3270.70;79.70;;;;;;5028111;28;19926;-87
2022/12/18 07:58:36;;;;;;;;;;;-3270.80;79.60;;;;;;5032055;28;19934;-86
2022/12/18 08:01:06;;;;;;;;;;;-3270.90;80.00;;;;;;5029770;28;20618;-85
2022/12/18 08:03:31;;;;;;;;;;;-3271.00;79.90;;;;;;5010633;28;19972;-86
2022/12/18 08:06:01;;;;;;;;;;;-3271.10;80.30;;;;;;5033566;28;19961;-86
2022/12/18 08:08:27;;;;;;;;;;;-3271.20;80.20;;;;;;5002622;28;19921;-85
2022/12/18 08:11:25;;;;;;;;;;;-3271.40;80.80;;;;;;5004011;28;19920;-86
2022/12/18 08:14:02;;;;;;;;;;;-3271.60;80.90;;;;;;5004877;28;19921;-87
2022/12/18 08:16:28;;;;;;;;;;;-3272.00;80.50;;;;;;5028760;22;19996;-78
2022/12/18 08:18:56;;;;;;;;;;;-3272.10;79.90;;;;;;5036439;28;19964;-78
2022/12/18 08:21:26;;;;;;;;;;;-3272.10;79.60;;;;;;5040582;28;19952;-78
2022/12/18 08:24:00;;;;;;;;;;;-3272.10;79.40;;;;;;5037946;28;19913;-78
2022/12/18 08:26:27;;;;;;;;;;;-3272.10;79.70;;;;;;5035862;28;19913;-79
2022/12/18 08:28:53;;;;;;;;;;;-3272.20;79.80;;;;;;5037038;28;19917;-78
2022/12/18 08:31:19;;;;;;;;;;;-3272.40;80.10;;;;;;5036097;28;20000;-78
2022/12/18 08:33:44;;;;;;;;;;;-3272.50;80.10;;;;;;5044953;28;19948;-78
2022/12/18 08:36:10;;;;;;;;;;;-3272.60;80.20;;;;;;5021620;28;20036;-78
2022/12/18 08:38:35;;;;;;;;;;;-3272.80;80.20;;;;;;5031741;28;19917;-78
2022/12/18 08:41:19;;;;;;;;;;;-3273.00;80.40;;;;;;5028741;28;19963;-78
2022/12/18 08:46:33;;;;;;;;;;;-3273.30;79.20;;;;;;5029015;28;19927;-76
2022/12/18 08:48:59;;;;;;;;;;;-3273.30;79.40;;;;;;5025788;28;19924;-79
2022/12/18 08:51:24;;;;;;;;;;;-3273.40;79.60;;;;;;5028027;28;19928;-79
2022/12/18 08:53:49;;;;;;;;;;;-3273.40;79.50;;;;;;5020764;28;20027;-78
2022/12/18 08:56:15;;;;;;;;;;;-3273.40;79.20;;;;;;5025987;28;19913;-78
2022/12/18 08:58:41;;;;;;;;;;;-3273.50;79.40;;;;;;5027105;28;19920;-78
2022/12/18 09:01:11;;;;;;;;;;;-3273.50;79.10;;;;;;5025596;28;19949;-78
2022/12/18 09:03:36;;;;;;;;;;;-3273.60;79.20;;;;;;5042365;28;20372;-78
2022/12/18 09:06:02;;;;;;;;;;;-3273.70;79.20;;;;;;5033001;28;19984;-78
2022/12/18 09:08:27;;;;;;;;;;;-3273.90;78.00;;;;;;5033923;28;19959;-78
2022/12/18 09:10:53;;;;;;;;;;;-3273.90;78.00;;;;;;5025983;28;19921;-78
2022/12/18 09:13:19;;;;;;;;;;;-3274.00;78.50;;;;;;5043659;28;20343;-78
2022/12/18 09:15:45;;;;;;;;;;;-3274.00;78.50;;;;;;5022733;28;20401;-78
2022/12/18 09:18:11;;;;;;;;;;;-3274.10;78.50;;;;;;5021354;28;20344;-80
2022/12/18 09:20:37;;;;;;;;;;;-3274.20;78.80;;;;;;5031719;28;19967;-79
2022/12/18 09:23:03;;;;;;;;;;;-3274.20;78.90;;;;;;5029499;28;19917;-79
2022/12/18 09:25:33;;;;;;;;;;;-3274.40;78.90;;;;;;5057093;28;20003;-79
2022/12/18 09:28:06;;;;;;;;;;;-3274.30;78.60;;;;;;5046962;28;19914;-79
2022/12/18 09:30:33;;;;;;;;;;;-3274.20;78.70;;;;;;5038890;28;19948;-79
2022/12/18 09:32:59;;;;;;;;;;;-3274.40;78.80;;;;;;5052765;28;19972;-79
2022/12/18 09:35:25;;;;;;;;;;;-3274.40;78.30;;;;;;5057771;28;19909;-80
2022/12/18 09:37:50;;;;;;;;;;;-3274.40;78.20;;;;;;5033132;28;19909;-79
2022/12/18 09:40:17;;;;;;;;;;;-3274.40;78.10;;;;;;5045466;28;19924;-80
2022/12/18 09:42:46;;;;;;;;;;;-3274.50;78.60;;;;;;5036889;28;19939;-78
2022/12/18 09:45:14;;;;;;;;;;;-3274.50;78.00;;;;;;5049372;28;19917;-79
2022/12/18 09:47:40;;;;;;;;;;;-3274.60;78.00;;;;;;5037171;28;19917;-80
2022/12/18 09:50:16;;;;;;;;;;;-3274.70;77.20;;;;;;5018002;28;19920;-76
2022/12/18 09:52:43;;;;;;;;;;;-3274.80;77.00;;;;;;5032414;28;20288;-76
2022/12/18 09:55:21;;;;;;;;;;;-3274.90;77.40;;;;;;5022168;28;19917;-77
2022/12/18 09:57:52;;;;;;;;;;;-3275.00;77.50;;;;;;5019554;28;19913;-75
2022/12/18 10:00:20;;;;;;;;;;;-3275.00;77.80;;;;;;5021766;28;20376;-77
2022/12/18 10:02:46;;;;;;;;;;;-3275.10;77.70;;;;;;5041182;28;19919;-76
2022/12/18 10:05:14;;;;;;;;;;;-3275.00;78.00;;;;;;5028375;28;19997;-77
2022/12/18 10:07:59;;;;;;;;;;;-3275.20;78.00;;;;;;5030693;28;20486;-77
2022/12/18 10:10:46;;;;;;;;;;;-3275.10;78.20;;;;;;5028322;28;20003;-77
2022/12/18 10:13:32;;;;;;;;;;;-3275.10;78.30;;;;;;5031666;28;19914;-77
2022/12/18 10:15:57;;;;;;;;;;;-3275.30;77.70;;;;;;5037093;28;20376;-79
2022/12/18 10:18:28;;;;;;;;;;;-3275.30;77.40;;;;;;5039823;28;19968;-76
2022/12/18 10:20:58;;;;;;;;;;;-3275.50;77.10;;;;;;5038863;28;19997;-78
2022/12/18 10:23:32;;;;;;;;;;;-3275.60;77.10;;;;;;5017387;28;19913;-77
2022/12/18 10:26:01;;;;;;;;;;;-3275.70;77.20;;;;;;5021061;28;19921;-78
2022/12/18 10:28:27;;;;;;;;;;;-3276.00;77.20;;;;;;5027544;28;19914;-81
2022/12/18 10:30:52;;;;;;;;;;;-3276.10;76.30;;;;;;5054993;28;20331;-81
2022/12/18 10:33:22;;;;;;;;;;;-3276.10;76.70;;;;;;5027438;28;20344;-80
2022/12/18 10:35:51;;;;;;;;;;;-3276.10;75.90;;;;;;5051965;28;19917;-81
2022/12/18 10:38:17;;;;;;;;;;;-3276.20;76.40;;;;;;5056483;28;19924;-80
2022/12/18 10:40:48;;;;;;;;;;;-3276.30;77.00;;;;;;5037119;28;19913;-81
2022/12/18 10:43:14;;;;;;;;;;;-3276.20;77.50;;;;;;5038945;28;20055;-79
2022/12/18 10:45:40;;;;;;;;;;;-3276.20;78.10;;;;;;5038788;28;19929;-79
2022/12/18 10:48:17;;;;;;;;;;;-3276.20;78.20;;;;;;5033069;28;20304;-79
2022/12/18 10:50:46;;;;;;;;;;;-3276.30;78.20;;;;;;5042461;28;19968;-79
2022/12/18 10:53:16;;;;;;;;;;;-3276.30;78.20;;;;;;5038552;28;19913;-81
2022/12/18 10:55:44;;;;;;;;;;;-3276.30;78.30;;;;;;5041379;28;20877;-80
2022/12/18 10:58:17;;;;;;;;;;;-3276.40;77.20;;;;;;5035923;28;19925;-80
2022/12/18 11:00:42;;;;;;;;;;;-3276.50;77.40;;;;;;5047104;28;19912;-79
2022/12/18 11:03:27;;;;;;;;;;;-3276.50;77.40;;;;;;5032999;28;19913;-79
2022/12/18 11:06:01;;;;;;;;;;;-3276.60;77.30;;;;;;5020221;28;19932;-79
2022/12/18 11:08:26;;;;;;;;;;;-3276.60;76.00;;;;;;5030527;28;20293;-81
2022/12/18 11:10:52;;;;;;;;;;;-3276.60;74.80;;;;;;5035013;28;19920;-80
2022/12/18 11:13:19;;;;;;;;;;;0.00;72.90;;;;;;5038144;28;19952;-80
2022/12/18 11:15:45;;;;;;;;;;;0.00;72.30;;;;;;5048118;28;19940;-80
2022/12/18 11:18:16;;;;;;;;;;;0.10;73.10;;;;;;5043315;28;19924;-78
2022/12/18 11:20:42;;;;;;;;;;;0.20;73.80;;;;;;5021091;28;19949;-76
2022/12/18 11:23:13;;;;;;;;;;;0.30;74.10;;;;;;5015981;28;19957;-75
2022/12/18 11:25:38;;;;;;;;;;;0.50;74.40;;;;;;5030829;28;20384;-75
2022/12/18 11:28:06;;;;;;;;;;;0.60;74.50;;;;;;5015384;28;19996;-77
2022/12/18 11:30:33;;;;;;;;;;;0.60;73.90;;;;;;5016734;28;20028;-77
2022/12/18 11:33:04;;;;;;;;;;;0.50;73.60;;;;;;5013073;28;19913;-75
2022/12/18 11:35:44;;;;;;;;;;;0.40;74.00;;;;;;5015947;28;19921;-75
2022/12/18 11:38:30;;;;;;;;;;;0.30;74.50;;;;;;5030667;28;20044;-76
2022/12/18 11:40:58;;;;;;;;;;;0.40;75.10;;;;;;5015272;28;19914;-77
2022/12/18 11:43:29;;;;;;;;;;;0.40;75.70;;;;;;5016259;28;19925;-75
2022/12/18 11:45:59;;;;;;;;;;;0.40;76.40;;;;;;5011179;28;19956;-75
2022/12/18 11:48:25;;;;;;;;;;;0.30;75.70;;;;;;5018011;28;19921;-77
2022/12/18 11:50:57;;;;;;;;;;;0.30;74.50;;;;;;5022238;28;19940;-79
2022/12/18 11:53:24;;;;;;;;;;;0.50;74.20;;;;;;5032759;28;20361;-79
2022/12/18 11:56:08;;;;;;;;;;;0.50;73.40;;;;;;5029562;28;19921;-77
2022/12/18 11:58:47;;;;;;;;;;;0.50;73.10;;;;;;5028577;28;19969;-77
2022/12/18 12:01:16;;;;;;;;;;;0.40;73.50;;;;;;5033661;28;19914;-78
2022/12/18 12:03:56;;;;;;;;;;;0.50;74.10;;;;;;5025267;28;19917;-78
2022/12/18 12:06:26;;;;;;;;;;;0.60;74.50;;;;;;5042434;28;20596;-78
2022/12/18 12:09:11;;;;;;;;;;;0.50;75.00;;;;;;5036762;28;19913;-77
2022/12/18 12:11:51;;;;;;;;;;;0.50;74.80;;;;;;5036805;28;19992;-77
2022/12/18 12:14:34;;;;;;;;;;;0.60;75.50;;;;;;5038968;28;20365;-77
2022/12/18 12:17:13;;;;;;;;;;;0.60;75.10;;;;;;5057960;28;20172;-78
2022/12/18 12:19:44;;;;;;;;;;;0.80;75.70;;;;;;5046822;28;19917;-77
2022/12/18 12:22:28;;;;;;;;;;;1.00;73.60;;;;;;5044890;28;20024;-78
2022/12/18 12:24:56;;;;;;;;;;;1.00;73.50;;;;;;5033772;28;20622;-78
2022/12/18 12:27:33;;;;;;;;;;;1.10;74.30;;;;;;5047728;28;19944;-78
2022/12/18 12:29:59;;;;;;;;;;;1.10;74.30;;;;;;5044167;28;19917;-78
2022/12/18 12:32:37;;;;;;;;;;;1.10;74.60;;;;;;5027199;28;19921;-79
2022/12/18 12:35:21;;;;;;;;;;;1.20;74.40;;;;;;5037786;28;19959;-76
2022/12/18 12:37:54;;;;;;;;;;;1.20;74.60;;;;;;5013255;28;19914;-77
2022/12/18 12:40:20;;;;;;;;;;;1.10;74.20;;;;;;5019065;28;19987;-76
2022/12/18 12:45:45;;;;;;;;;;;1.20;73.80;;;;;;5020655;28;19959;-77
2022/12/18 12:48:19;;;;;;;;;;;1.00;73.50;;;;;;5037233;28;20074;-77
2022/12/18 12:50:44;;;;;;;;;;;0.90;74.10;;;;;;5036725;28;19914;-77
2022/12/18 12:53:15;;;;;;;;;;;0.70;74.40;;;;;;5025986;28;19921;-77
2022/12/18 12:55:40;;;;;;;;;;;0.90;75.00;;;;;;5026144;28;19917;-77
2022/12/18 12:58:26;;;;;;;;;;;1.00;74.30;;;;;;5039642;28;19925;-77
2022/12/18 13:01:01;;;;;;;;;;;1.10;74.00;;;;;;5022593;28;19928;-74
2022/12/18 13:03:39;;;;;;;;;;;0.90;73.80;;;;;;5030541;28;19917;-75
2022/12/18 13:06:25;;;;;;;;;;;0.80;74.20;;;;;;5033329;28;20868;-77
2022/12/18 13:08:58;;;;;;;;;;;1.00;74.40;;;;;;5016336;28;19924;-77
2022/12/18 13:14:42;;;;;;;;;;;1.20;74.10;;;;;;5018399;28;19956;-76
2022/12/18 13:17:14;;;;;;;;;;;1.10;74.40;;;;;;5027099;28;20116;-77
2022/12/18 13:19:40;;;;;;;;;;;1.10;74.00;;;;;;5042141;28;19921;-76
2022/12/18 13:22:20;;;;;;;;;;;1.00;74.10;;;;;;5052969;22;19913;-85
2022/12/18 13:24:46;;;;;;;;;;;1.00;74.00;;;;;;5049547;28;19924;-84
2022/12/18 13:27:30;;;;;;;;;;;0.90;74.30;;;;;;5061714;28;19912;-89
2022/12/18 13:29:55;;;;;;;;;;;0.80;74.50;;;;;;5067715;28;19931;-88
2022/12/18 13:32:29;;;;;;;;;;;0.80;74.40;;;;;;5052972;28;20035;-89
2022/12/18 13:35:21;;;;;;;;;;;0.80;74.90;;;;;;5074590;28;19923;-86
2022/12/18 13:37:53;;;;;;;;;;;1.00;75.10;;;;;;5020701;28;19921;-89
2022/12/18 13:40:45;;;;;;;;;;;0.90;75.60;;;;;;5046117;28;20048;-89
2022/12/18 13:43:19;;;;;;;;;;;0.90;75.90;;;;;;5051356;28;19913;-88
2022/12/18 13:45:54;;;;;;;;;;;1.00;76.20;;;;;;5077871;28;19913;-89
2022/12/18 13:48:21;;;;;;;;;;;1.00;76.50;;;;;;5043298;28;19921;-87
2022/12/18 13:50:58;;;;;;;;;;;1.00;76.30;;;;;;5051825;28;19912;-88
2022/12/18 13:53:50;;;;;;;;;;;0.80;76.60;;;;;;5067283;28;20016;-90
2022/12/18 13:59:16;;;;;;;;;;;0.80;77.70;;;;;;5061915;28;19923;-88
2022/12/18 14:01:52;;;;;;;;;;;0.80;77.60;;;;;;5067802;28;19967;-89
2022/12/18 14:04:19;;;;;;;;;;;0.80;77.80;;;;;;5049516;28;19912;-88
2022/12/18 14:06:45;;;;;;;;;;;0.80;77.50;;;;;;5064551;28;19948;-88
2022/12/18 14:09:15;;;;;;;;;;;0.60;77.70;;;;;;5044640;28;19913;-88
2022/12/18 14:11:45;;;;;;;;;;;0.80;78.20;;;;;;5064243;28;19984;-87